createdAt,value
2018-04-10T00:00:58.432Z,929.23
2018-04-10T00:02:06.375Z,929.24
2018-04-10T00:03:14.449Z,929.22
2018-04-10T00:04:22.618Z,929.24
2018-04-10T00:05:30.564Z,929.26
2018-04-10T00:06:38.621Z,929.24
2018-04-10T00:07:46.691Z,929.26
2018-04-10T00:08:54.755Z,929.29
2018-04-10T00:10:02.874Z,929.34
2018-04-10T00:11:10.871Z,929.32
2018-04-10T00:12:18.939Z,929.29
2018-04-10T00:13:27.028Z,929.30
2018-04-10T00:14:35.092Z,929.30
2018-04-10T00:15:43.252Z,929.26
2018-04-10T00:16:51.295Z,929.32
2018-04-10T00:17:59.273Z,929.31
2018-04-10T00:19:07.336Z,929.30
2018-04-10T00:20:15.395Z,929.28
2018-04-10T00:21:23.489Z,929.28
2018-04-10T00:22:31.626Z,929.25
2018-04-10T00:23:39.603Z,929.28
2018-04-10T00:24:47.653Z,929.25
2018-04-10T00:25:55.716Z,929.25
2018-04-10T00:27:03.818Z,929.23
2018-04-10T00:28:11.825Z,929.23
2018-04-10T00:29:19.936Z,929.22
2018-04-10T00:30:27.963Z,929.22
2018-04-10T00:31:36.013Z,929.25
2018-04-10T00:32:44.138Z,929.23
2018-04-10T00:33:52.152Z,929.26
2018-04-10T00:35:00.214Z,929.29
2018-04-10T00:36:08.286Z,929.29
2018-04-10T00:37:16.460Z,929.31
2018-04-10T00:38:24.406Z,929.28
2018-04-10T00:39:32.469Z,929.28
2018-04-10T00:40:40.533Z,929.31
2018-04-10T00:41:48.595Z,929.29
2018-04-10T00:42:56.701Z,929.34
2018-04-10T00:44:04.727Z,929.31
2018-04-10T00:45:12.781Z,929.31
2018-04-10T00:46:20.825Z,929.33
2018-04-10T00:47:29.031Z,929.31
2018-04-10T00:48:37.096Z,929.28
2018-04-10T00:49:45.036Z,929.24
2018-04-10T00:50:53.105Z,929.23
2018-04-10T00:52:01.141Z,929.22
2018-04-10T00:53:09.220Z,929.22
2018-04-10T00:54:17.337Z,929.17
2018-04-10T00:55:25.341Z,929.20
2018-04-10T00:56:33.412Z,929.24
2018-04-10T00:57:41.444Z,929.19
2018-04-10T00:58:49.536Z,929.22
2018-04-10T00:59:57.735Z,929.23
2018-04-10T01:01:05.671Z,929.24
2018-04-10T01:02:13.723Z,929.25
2018-04-10T01:03:21.899Z,929.26
2018-04-10T01:04:29.858Z,929.21
2018-04-10T01:05:37.969Z,929.28
2018-04-10T01:06:45.984Z,929.25
2018-04-10T01:07:54.058Z,929.23
2018-04-10T01:09:02.103Z,929.21
2018-04-10T01:10:10.163Z,929.20
2018-04-10T01:11:18.342Z,929.20
2018-04-10T01:12:26.306Z,929.22
2018-04-10T01:13:34.359Z,929.20
2018-04-10T01:14:42.417Z,929.20
2018-04-10T01:15:50.483Z,929.22
2018-04-10T01:16:58.657Z,929.19
2018-04-10T01:18:06.620Z,929.19
2018-04-10T01:19:14.717Z,929.18
2018-04-10T01:20:22.728Z,929.16
2018-04-10T01:21:30.776Z,929.15
2018-04-10T01:22:38.958Z,929.13
2018-04-10T01:23:46.946Z,929.10
2018-04-10T01:24:54.971Z,929.13
2018-04-10T01:26:03.059Z,929.12
2018-04-10T01:27:11.084Z,929.14
2018-04-10T01:28:19.355Z,929.10
2018-04-10T01:29:27.229Z,929.08
2018-04-10T01:30:35.302Z,929.06
2018-04-10T01:31:43.366Z,929.04
2018-04-10T01:32:51.397Z,929.06
2018-04-10T01:33:59.595Z,929.03
2018-04-10T01:35:08.032Z,929.00
2018-04-10T01:36:15.605Z,929.00
2018-04-10T01:37:23.667Z,928.99
2018-04-10T01:38:31.727Z,928.97
2018-04-10T01:39:39.864Z,928.94
2018-04-10T01:40:47.859Z,928.91
2018-04-10T01:41:55.912Z,928.87
2018-04-10T01:43:03.990Z,928.88
2018-04-10T01:44:12.045Z,928.85
2018-04-10T01:45:20.126Z,928.82
2018-04-10T01:46:28.176Z,928.78
2018-04-10T01:47:36.382Z,928.78
2018-04-10T01:48:44.294Z,928.76
2018-04-10T01:49:52.373Z,928.74
2018-04-10T01:51:00.553Z,928.76
2018-04-10T01:52:08.507Z,928.74
2018-04-10T01:53:16.608Z,928.74
2018-04-10T01:54:24.628Z,928.72
2018-04-10T01:55:32.672Z,928.74
2018-04-10T01:56:40.732Z,928.71
2018-04-10T01:57:48.800Z,928.75
2018-04-10T01:58:56.986Z,928.72
2018-04-10T02:00:04.932Z,928.74
2018-04-10T02:01:12.983Z,928.75
2018-04-10T02:02:21.031Z,928.71
2018-04-10T02:03:29.121Z,928.66
2018-04-10T02:04:37.302Z,928.65
2018-04-10T02:05:45.249Z,928.64
2018-04-10T02:06:53.408Z,928.65
2018-04-10T02:08:01.351Z,928.63
2018-04-10T02:09:09.441Z,928.61
2018-04-10T02:10:17.552Z,928.64
2018-04-10T02:11:25.566Z,928.64
2018-04-10T02:12:33.611Z,928.63
2018-04-10T02:13:41.666Z,928.65
2018-04-10T02:14:49.745Z,928.64
2018-04-10T02:15:57.914Z,928.61
2018-04-10T02:17:05.884Z,928.62
2018-04-10T02:18:13.931Z,928.67
2018-04-10T02:19:21.999Z,928.66
2018-04-10T02:20:30.054Z,928.64
2018-04-10T02:21:38.171Z,928.66
2018-04-10T02:22:46.234Z,928.64
2018-04-10T02:23:54.258Z,928.59
2018-04-10T02:25:02.327Z,928.62
2018-04-10T02:26:10.413Z,928.63
2018-04-10T02:27:18.490Z,928.65
2018-04-10T02:28:26.498Z,928.62
2018-04-10T02:29:34.560Z,928.62
2018-04-10T02:30:42.632Z,928.62
2018-04-10T02:31:50.700Z,928.62
2018-04-10T02:32:58.807Z,928.60
2018-04-10T02:34:06.816Z,928.59
2018-04-10T02:35:14.876Z,928.58
2018-04-10T02:36:22.943Z,928.57
2018-04-10T02:37:31.111Z,928.59
2018-04-10T02:38:39.227Z,928.59
2018-04-10T02:39:47.126Z,928.60
2018-04-10T02:40:55.195Z,928.56
2018-04-10T02:42:03.279Z,928.56
2018-04-10T02:43:11.420Z,928.56
2018-04-10T02:44:19.428Z,928.56
2018-04-10T02:45:27.458Z,928.57
2018-04-10T02:46:35.524Z,928.56
2018-04-10T02:47:43.590Z,928.58
2018-04-10T02:48:51.613Z,928.60
2018-04-10T02:49:59.813Z,928.57
2018-04-10T02:51:07.763Z,928.55
2018-04-10T02:52:15.811Z,928.51
2018-04-10T02:53:24.001Z,928.49
2018-04-10T02:54:31.936Z,928.45
2018-04-10T02:55:40.059Z,928.41
2018-04-10T02:56:48.087Z,928.43
2018-04-10T02:57:56.126Z,928.43
2018-04-10T02:59:04.201Z,928.45
2018-04-10T03:00:12.272Z,928.43
2018-04-10T03:01:20.440Z,928.41
2018-04-10T03:02:28.389Z,928.41
2018-04-10T03:03:36.450Z,928.39
2018-04-10T03:04:44.508Z,928.39
2018-04-10T03:05:52.558Z,928.39
2018-04-10T03:07:00.733Z,928.36
2018-04-10T03:08:08.703Z,928.34
2018-04-10T03:09:16.812Z,928.31
2018-04-10T03:10:24.815Z,928.31
2018-04-10T03:11:32.881Z,928.26
2018-04-10T03:12:40.981Z,928.25
2018-04-10T03:13:49.007Z,928.20
2018-04-10T03:14:57.074Z,928.15
2018-04-10T03:16:05.132Z,928.16
2018-04-10T03:17:13.240Z,928.14
2018-04-10T03:18:21.230Z,928.13
2018-04-10T03:19:29.310Z,928.08
2018-04-10T03:20:37.377Z,928.08
2018-04-10T03:21:45.434Z,928.03
2018-04-10T03:22:53.552Z,927.99
2018-04-10T03:24:01.557Z,928.00
2018-04-10T03:25:09.744Z,927.97
2018-04-10T03:26:17.684Z,927.92
2018-04-10T03:27:25.871Z,927.87
2018-04-10T03:28:33.804Z,927.88
2018-04-10T03:29:41.875Z,927.84
2018-04-10T03:30:49.920Z,927.82
2018-04-10T03:31:57.992Z,927.78
2018-04-10T03:33:06.110Z,927.79
2018-04-10T03:34:14.112Z,927.74
2018-04-10T03:35:22.185Z,927.72
2018-04-10T03:36:30.247Z,927.74
2018-04-10T03:37:38.314Z,927.72
2018-04-10T03:38:46.490Z,927.70
2018-04-10T03:39:54.436Z,927.64
2018-04-10T03:41:02.608Z,927.63
2018-04-10T03:42:10.565Z,927.58
2018-04-10T03:43:18.611Z,927.53
2018-04-10T03:44:26.725Z,927.53
2018-04-10T03:45:34.726Z,927.51
2018-04-10T03:46:42.803Z,927.49
2018-04-10T03:47:50.883Z,927.43
2018-04-10T03:48:58.913Z,927.33
2018-04-10T03:50:07.105Z,927.30
2018-04-10T03:51:15.050Z,927.27
2018-04-10T03:52:23.111Z,927.20
2018-04-10T03:53:31.151Z,927.19
2018-04-10T03:54:39.365Z,927.18
2018-04-10T03:55:47.361Z,927.17
2018-04-10T03:56:55.486Z,927.13
2018-04-10T03:58:03.427Z,927.10
2018-04-10T03:59:11.455Z,927.07
2018-04-10T04:00:19.655Z,927.06
2018-04-10T04:01:27.649Z,927.07
2018-04-10T04:02:35.684Z,927.09
2018-04-10T04:03:43.729Z,927.06
2018-04-10T04:04:51.789Z,927.11
2018-04-10T04:05:59.845Z,927.14
2018-04-10T04:07:07.956Z,927.14
2018-04-10T04:08:15.968Z,927.16
2018-04-10T04:09:24.037Z,927.15
2018-04-10T04:10:32.092Z,927.15
2018-04-10T04:11:40.270Z,927.19
2018-04-10T04:12:48.275Z,927.25
2018-04-10T04:13:56.291Z,927.31
2018-04-10T04:15:04.348Z,927.40
2018-04-10T04:16:12.398Z,927.48
2018-04-10T04:17:20.513Z,927.50
2018-04-10T04:18:28.555Z,927.61
2018-04-10T04:19:36.590Z,927.58
2018-04-10T04:20:44.650Z,927.61
2018-04-10T04:21:52.711Z,927.63
2018-04-10T04:23:00.804Z,927.68
2018-04-10T04:24:08.840Z,927.62
2018-04-10T04:25:16.891Z,927.63
2018-04-10T04:26:24.969Z,927.73
2018-04-10T04:27:33.145Z,927.77
2018-04-10T04:28:41.061Z,927.80
2018-04-10T04:29:49.662Z,927.82
2018-04-10T04:30:57.214Z,927.88
2018-04-10T04:32:05.338Z,927.88
2018-04-10T04:33:13.388Z,927.87
2018-04-10T04:34:21.380Z,927.88
2018-04-10T04:35:29.482Z,927.86
2018-04-10T04:36:37.522Z,927.86
2018-04-10T04:37:45.578Z,927.85
2018-04-10T04:38:53.761Z,927.87
2018-04-10T04:40:01.700Z,927.86
2018-04-10T04:41:09.778Z,927.88
2018-04-10T04:42:19.006Z,927.94
2018-04-10T04:43:25.898Z,927.94
2018-04-10T04:44:34.014Z,927.97
2018-04-10T04:45:42.018Z,928.02
2018-04-10T04:46:50.092Z,928.05
2018-04-10T04:47:58.199Z,928.13
2018-04-10T04:49:06.211Z,928.20
2018-04-10T04:50:14.430Z,928.25
2018-04-10T04:51:22.505Z,928.31
2018-04-10T04:52:30.395Z,928.29
2018-04-10T04:53:38.465Z,928.30
2018-04-10T04:54:46.557Z,928.29
2018-04-10T04:55:55.538Z,928.28
2018-04-10T04:57:02.653Z,928.28
2018-04-10T04:58:10.817Z,928.26
2018-04-10T04:59:18.801Z,928.21
2018-04-10T05:00:27.033Z,928.23
2018-04-10T05:01:35.009Z,928.20
2018-04-10T05:02:42.967Z,928.20
2018-04-10T05:03:50.998Z,928.17
2018-04-10T05:04:59.221Z,928.25
2018-04-10T05:06:07.161Z,928.32
2018-04-10T05:07:15.278Z,928.33
2018-04-10T05:08:23.279Z,928.39
2018-04-10T05:09:31.316Z,928.41
2018-04-10T05:10:39.392Z,928.42
2018-04-10T05:11:47.898Z,928.45
2018-04-10T05:12:55.566Z,928.49
2018-04-10T05:14:03.710Z,928.47
2018-04-10T05:15:11.634Z,928.47
2018-04-10T05:16:19.705Z,928.50
2018-04-10T05:17:27.770Z,928.50
2018-04-10T05:18:35.957Z,928.47
2018-04-10T05:19:43.892Z,928.47
2018-04-10T05:20:51.961Z,928.45
2018-04-10T05:22:00.042Z,928.43
2018-04-10T05:23:08.103Z,928.47
2018-04-10T05:24:16.272Z,928.49
2018-04-10T05:25:24.209Z,928.47
2018-04-10T05:26:32.291Z,928.50
2018-04-10T05:27:40.339Z,928.47
2018-04-10T05:28:48.399Z,928.50
2018-04-10T05:29:56.617Z,928.46
2018-04-10T05:31:04.529Z,928.48
2018-04-10T05:32:12.603Z,928.44
2018-04-10T05:33:20.653Z,928.43
2018-04-10T05:34:28.721Z,928.47
2018-04-10T05:35:36.892Z,928.47
2018-04-10T05:36:44.849Z,928.44
2018-04-10T05:37:52.921Z,928.49
2018-04-10T05:39:00.949Z,928.48
2018-04-10T05:40:09.042Z,928.49
2018-04-10T05:41:17.172Z,928.49
2018-04-10T05:42:25.152Z,928.51
2018-04-10T05:43:33.230Z,928.52
2018-04-10T05:44:41.274Z,928.55
2018-04-10T05:45:49.466Z,928.55
2018-04-10T05:46:57.474Z,928.53
2018-04-10T05:48:05.469Z,928.55
2018-04-10T05:49:13.531Z,928.55
2018-04-10T05:50:21.617Z,928.55
2018-04-10T05:51:29.675Z,928.54
2018-04-10T05:52:37.780Z,928.51
2018-04-10T05:53:45.809Z,928.50
2018-04-10T05:54:53.847Z,928.51
2018-04-10T05:56:01.920Z,928.50
2018-04-10T05:57:10.017Z,928.49
2018-04-10T05:58:18.046Z,928.55
2018-04-10T05:59:26.111Z,928.53
2018-04-10T06:00:34.186Z,928.55
2018-04-10T06:01:42.303Z,928.57
2018-04-10T06:02:50.347Z,928.57
2018-04-10T06:03:58.395Z,928.55
2018-04-10T06:05:06.423Z,928.54
2018-04-10T06:06:14.488Z,928.56
2018-04-10T06:07:22.672Z,928.56
2018-04-10T06:08:30.624Z,928.57
2018-04-10T06:09:38.675Z,928.53
2018-04-10T06:10:46.741Z,928.54
2018-04-10T06:11:54.926Z,928.56
2018-04-10T06:13:02.988Z,928.59
2018-04-10T06:14:10.930Z,928.53
2018-04-10T06:15:19.000Z,928.51
2018-04-10T06:16:27.075Z,928.51
2018-04-10T06:17:35.175Z,928.52
2018-04-10T06:18:43.304Z,928.53
2018-04-10T06:19:51.242Z,928.52
2018-04-10T06:20:59.364Z,928.54
2018-04-10T06:22:07.388Z,928.49
2018-04-10T06:23:15.466Z,928.47
2018-04-10T06:24:23.631Z,928.50
2018-04-10T06:25:31.556Z,928.59
2018-04-10T06:26:39.637Z,928.55
2018-04-10T06:27:47.712Z,928.61
2018-04-10T06:28:55.785Z,928.62
2018-04-10T06:30:03.907Z,928.65
2018-04-10T06:31:11.896Z,928.62
2018-04-10T06:32:20.013Z,928.63
2018-04-10T06:33:28.043Z,928.59
2018-04-10T06:34:36.094Z,928.60
2018-04-10T06:35:44.217Z,928.57
2018-04-10T06:36:52.227Z,928.58
2018-04-10T06:38:00.306Z,928.54
2018-04-10T06:39:08.362Z,928.55
2018-04-10T06:40:16.439Z,928.56
2018-04-10T06:41:24.611Z,928.51
2018-04-10T06:42:32.556Z,928.51
2018-04-10T06:43:40.629Z,928.53
2018-04-10T06:44:48.708Z,928.49
2018-04-10T06:45:56.753Z,928.50
2018-04-10T06:47:04.888Z,928.52
2018-04-10T06:48:12.944Z,928.50
2018-04-10T06:49:20.948Z,928.48
2018-04-10T06:50:29.034Z,928.48
2018-04-10T06:51:37.099Z,928.50
2018-04-10T06:52:45.271Z,928.49
2018-04-10T06:53:53.214Z,928.51
2018-04-10T06:55:01.283Z,928.57
2018-04-10T06:56:09.344Z,928.53
2018-04-10T06:57:17.419Z,928.51
2018-04-10T06:58:25.518Z,928.54
2018-04-10T06:59:33.560Z,928.58
2018-04-10T07:00:41.601Z,928.65
2018-04-10T07:01:49.675Z,928.77
2018-04-10T07:02:57.798Z,928.73
2018-04-10T07:04:05.957Z,928.77
2018-04-10T07:05:13.898Z,928.79
2018-04-10T07:06:21.957Z,928.73
2018-04-10T07:07:30.034Z,928.76
2018-04-10T07:08:38.206Z,928.72
2018-04-10T07:09:46.167Z,928.71
2018-04-10T07:10:54.231Z,928.77
2018-04-10T07:12:02.274Z,928.78
2018-04-10T07:13:10.352Z,928.68
2018-04-10T07:14:18.493Z,928.63
2018-04-10T07:15:26.489Z,928.67
2018-04-10T07:16:34.558Z,928.65
2018-04-10T07:17:42.630Z,928.62
2018-04-10T07:18:50.697Z,928.61
2018-04-10T07:19:58.868Z,928.59
2018-04-10T07:21:06.814Z,928.60
2018-04-10T07:22:14.902Z,928.60
2018-04-10T07:23:22.968Z,928.60
2018-04-10T07:24:31.006Z,928.64
2018-04-10T07:25:39.143Z,928.72
2018-04-10T07:26:47.921Z,928.78
2018-04-10T07:27:55.229Z,928.77
2018-04-10T07:29:03.307Z,928.85
2018-04-10T07:30:11.345Z,928.86
2018-04-10T07:31:19.550Z,928.66
2018-04-10T07:32:27.505Z,928.59
2018-04-10T07:33:35.575Z,928.60
2018-04-10T07:34:43.650Z,928.66
2018-04-10T07:35:51.742Z,928.79
2018-04-10T07:36:59.880Z,928.92
2018-04-10T07:38:07.855Z,929.09
2018-04-10T07:39:15.907Z,929.00
2018-04-10T07:40:23.997Z,928.82
2018-04-10T07:41:32.048Z,928.90
2018-04-10T07:42:40.174Z,928.80
2018-04-10T07:43:48.197Z,928.62
2018-04-10T07:44:56.256Z,929.03
2018-04-10T07:46:04.355Z,929.66
2018-04-10T07:47:12.441Z,930.06
2018-04-10T07:48:20.468Z,929.92
2018-04-10T07:49:28.533Z,930.15
2018-04-10T07:50:36.599Z,930.20
2018-04-10T07:51:44.781Z,929.77
2018-04-10T07:52:52.794Z,929.69
2018-04-10T07:54:00.802Z,931.05
2018-04-10T07:55:08.900Z,931.07
2018-04-10T07:56:16.956Z,932.47
2018-04-10T07:57:25.027Z,932.43
2018-04-10T07:58:33.218Z,931.29
2018-04-10T07:59:41.139Z,931.23
2018-04-10T08:00:49.236Z,934.55
2018-04-10T08:01:57.311Z,934.46
2018-04-10T08:03:05.375Z,931.19
2018-04-10T08:04:13.555Z,931.64
2018-04-10T08:05:21.483Z,930.04
2018-04-10T08:06:29.573Z,929.24
2018-04-10T08:07:37.694Z,930.05
2018-04-10T08:08:45.721Z,931.59
2018-04-10T08:09:53.846Z,932.64
2018-04-10T08:11:01.885Z,931.74
2018-04-10T08:12:09.928Z,932.57
2018-04-10T08:13:18.007Z,934.16
2018-04-10T08:14:26.072Z,934.32
2018-04-10T08:15:34.263Z,936.04
2018-04-10T08:16:42.217Z,936.96
2018-04-10T08:17:50.291Z,934.71
2018-04-10T08:18:58.366Z,933.07
2018-04-10T08:20:06.437Z,932.85
2018-04-10T08:21:14.622Z,932.80
2018-04-10T08:22:22.623Z,936.76
2018-04-10T08:23:30.661Z,935.27
2018-04-10T08:24:38.714Z,933.44
2018-04-10T08:25:46.800Z,931.45
2018-04-10T08:26:54.979Z,931.12
2018-04-10T08:28:02.917Z,933.59
2018-04-10T08:29:10.977Z,933.77
2018-04-10T08:30:19.066Z,936.56
2018-04-10T08:31:27.133Z,939.13
2018-04-10T08:32:35.257Z,939.52
2018-04-10T08:33:43.285Z,940.82
2018-04-10T08:34:51.327Z,944.29
2018-04-10T08:35:59.554Z,942.68
2018-04-10T08:37:07.627Z,944.65
2018-04-10T08:38:15.584Z,945.38
2018-04-10T08:39:23.658Z,948.17
2018-04-10T08:40:31.691Z,949.58
2018-04-10T08:41:39.785Z,948.51
2018-04-10T08:42:47.903Z,943.72
2018-04-10T08:43:55.930Z,943.68
2018-04-10T08:45:04.031Z,947.38
2018-04-10T08:46:12.082Z,950.82
2018-04-10T08:47:20.202Z,949.82
2018-04-10T08:48:28.232Z,947.21
2018-04-10T08:49:36.283Z,936.67
2018-04-10T08:50:44.350Z,929.15
2018-04-10T08:51:52.438Z,928.95
2018-04-10T08:53:00.628Z,928.86
2018-04-10T08:54:08.577Z,928.79
2018-04-10T08:55:16.642Z,928.80
2018-04-10T08:56:24.725Z,928.72
2018-04-10T08:57:32.799Z,928.75
2018-04-10T08:58:40.893Z,928.78
2018-04-10T08:59:48.938Z,928.76
2018-04-10T09:00:57.010Z,928.77
2018-04-10T09:02:05.087Z,928.66
2018-04-10T09:03:13.144Z,928.67
2018-04-10T09:04:21.316Z,928.59
2018-04-10T09:05:29.288Z,928.57
2018-04-10T09:06:37.358Z,928.57
2018-04-10T09:07:45.432Z,928.59
2018-04-10T09:08:53.551Z,928.64
2018-04-10T09:10:01.604Z,928.66
2018-04-10T09:11:09.636Z,928.61
2018-04-10T09:12:17.702Z,928.63
2018-04-10T09:13:25.777Z,928.62
2018-04-10T09:14:33.844Z,928.62
2018-04-10T09:15:42.014Z,928.54
2018-04-10T09:16:49.991Z,928.59
2018-04-10T09:17:58.055Z,928.54
2018-04-10T09:19:06.120Z,928.51
2018-04-10T09:20:14.226Z,928.53
2018-04-10T09:21:22.305Z,928.51
2018-04-10T09:22:30.327Z,928.52
2018-04-10T09:23:38.376Z,928.51
2018-04-10T09:24:46.582Z,928.52
2018-04-10T09:25:54.552Z,928.63
2018-04-10T09:27:02.658Z,928.66
2018-04-10T09:28:10.663Z,928.59
2018-04-10T09:29:18.739Z,928.63
2018-04-10T09:30:26.822Z,928.68
2018-04-10T09:31:34.874Z,928.55
2018-04-10T09:32:43.003Z,928.59
2018-04-10T09:33:50.988Z,928.53
2018-04-10T09:34:59.091Z,928.60
2018-04-10T09:36:07.153Z,928.61
2018-04-10T09:37:15.270Z,928.51
2018-04-10T09:38:23.294Z,928.51
2018-04-10T09:39:31.343Z,928.55
2018-04-10T09:40:39.542Z,928.48
2018-04-10T09:41:47.507Z,928.47
2018-04-10T09:42:55.616Z,928.42
2018-04-10T09:44:03.766Z,928.47
2018-04-10T09:45:11.698Z,928.44
2018-04-10T09:46:19.769Z,928.45
2018-04-10T09:47:27.905Z,928.39
2018-04-10T09:48:35.911Z,928.38
2018-04-10T09:49:44.036Z,928.34
2018-04-10T09:50:52.060Z,928.33
2018-04-10T09:52:00.132Z,928.30
2018-04-10T09:53:08.297Z,928.28
2018-04-10T09:54:16.276Z,928.24
2018-04-10T09:55:24.346Z,928.29
2018-04-10T09:56:32.524Z,928.39
2018-04-10T09:57:40.464Z,928.33
2018-04-10T09:58:48.596Z,928.34
2018-04-10T09:59:56.617Z,928.37
2018-04-10T10:01:04.678Z,928.35
2018-04-10T10:02:12.745Z,928.39
2018-04-10T10:03:20.816Z,928.38
2018-04-10T10:04:29.013Z,928.41
2018-04-10T10:05:36.952Z,928.39
2018-04-10T10:06:45.031Z,928.39
2018-04-10T10:07:53.113Z,928.35
2018-04-10T10:09:01.141Z,928.34
2018-04-10T10:10:09.359Z,928.39
2018-04-10T10:11:17.331Z,928.40
2018-04-10T10:12:25.428Z,928.30
2018-04-10T10:13:33.459Z,928.28
2018-04-10T10:14:41.505Z,928.33
2018-04-10T10:15:49.711Z,928.30
2018-04-10T10:16:57.662Z,928.31
2018-04-10T10:18:05.719Z,928.29
2018-04-10T10:19:13.805Z,928.30
2018-04-10T10:20:21.859Z,928.27
2018-04-10T10:21:30.053Z,928.24
2018-04-10T10:22:38.001Z,928.22
2018-04-10T10:23:46.083Z,928.22
2018-04-10T10:24:54.145Z,928.21
2018-04-10T10:26:02.213Z,928.27
2018-04-10T10:27:10.350Z,928.27
2018-04-10T10:28:18.356Z,928.24
2018-04-10T10:29:26.426Z,928.25
2018-04-10T10:30:34.496Z,928.26
2018-04-10T10:31:42.565Z,928.26
2018-04-10T10:32:50.697Z,928.23
2018-04-10T10:33:58.706Z,928.21
2018-04-10T10:35:06.769Z,928.21
2018-04-10T10:36:14.847Z,928.17
2018-04-10T10:37:23.016Z,928.09
2018-04-10T10:38:30.968Z,928.10
2018-04-10T10:39:39.042Z,928.03
2018-04-10T10:40:47.123Z,928.11
2018-04-10T10:41:55.206Z,928.10
2018-04-10T10:43:03.374Z,928.04
2018-04-10T10:44:11.301Z,928.00
2018-04-10T10:45:19.410Z,927.99
2018-04-10T10:46:27.504Z,927.98
2018-04-10T10:47:35.551Z,927.92
2018-04-10T10:48:43.716Z,928.01
2018-04-10T10:49:51.816Z,927.94
2018-04-10T10:50:59.752Z,927.88
2018-04-10T10:52:07.825Z,927.88
2018-04-10T10:53:15.890Z,927.89
2018-04-10T10:54:24.078Z,927.91
2018-04-10T10:55:32.020Z,927.90
2018-04-10T10:56:40.106Z,927.84
2018-04-10T10:57:48.169Z,927.81
2018-04-10T10:58:56.360Z,927.81
2018-04-10T11:00:04.372Z,927.75
2018-04-10T11:01:12.382Z,927.78
2018-04-10T11:02:20.462Z,927.81
2018-04-10T11:03:28.509Z,927.76
2018-04-10T11:04:36.602Z,927.77
2018-04-10T11:05:44.764Z,927.75
2018-04-10T11:06:52.729Z,927.74
2018-04-10T11:08:00.803Z,927.70
2018-04-10T11:09:08.883Z,927.69
2018-04-10T11:10:16.942Z,927.71
2018-04-10T11:11:25.064Z,927.77
2018-04-10T11:12:33.094Z,927.82
2018-04-10T11:13:41.137Z,927.80
2018-04-10T11:14:49.347Z,927.79
2018-04-10T11:15:57.308Z,927.82
2018-04-10T11:17:05.410Z,927.79
2018-04-10T11:18:13.415Z,927.78
2018-04-10T11:19:21.488Z,927.81
2018-04-10T11:20:29.579Z,927.77
2018-04-10T11:21:37.641Z,927.75
2018-04-10T11:22:45.757Z,927.71
2018-04-10T11:23:53.793Z,927.72
2018-04-10T11:25:01.858Z,927.70
2018-04-10T11:26:09.958Z,927.71
2018-04-10T11:27:18.105Z,927.69
2018-04-10T11:28:26.074Z,927.65
2018-04-10T11:29:34.140Z,927.68
2018-04-10T11:30:42.255Z,927.68
2018-04-10T11:31:50.273Z,927.71
2018-04-10T11:32:58.468Z,927.72
2018-04-10T11:34:06.422Z,927.63
2018-04-10T11:35:14.503Z,927.68
2018-04-10T11:36:22.557Z,927.70
2018-04-10T11:37:30.656Z,927.71
2018-04-10T11:38:38.756Z,927.74
2018-04-10T11:39:46.774Z,927.77
2018-04-10T11:40:54.844Z,927.72
2018-04-10T11:42:02.918Z,927.69
2018-04-10T11:43:10.966Z,927.66
2018-04-10T11:44:19.148Z,927.67
2018-04-10T11:45:27.138Z,927.64
2018-04-10T11:46:35.253Z,927.55
2018-04-10T11:47:43.278Z,927.58
2018-04-10T11:48:51.312Z,927.66
2018-04-10T11:49:59.522Z,927.69
2018-04-10T11:51:07.479Z,927.64
2018-04-10T11:52:15.565Z,927.55
2018-04-10T11:53:23.644Z,927.57
2018-04-10T11:54:31.697Z,927.56
2018-04-10T11:55:39.815Z,927.61
2018-04-10T11:56:47.850Z,927.65
2018-04-10T11:57:55.904Z,927.66
2018-04-10T11:59:03.979Z,927.69
2018-04-10T12:00:12.073Z,927.69
2018-04-10T12:01:20.244Z,927.75
2018-04-10T12:02:28.252Z,927.77
2018-04-10T12:03:36.393Z,927.76
2018-04-10T12:04:44.341Z,927.77
2018-04-10T12:05:52.412Z,927.70
2018-04-10T12:07:00.530Z,927.74
2018-04-10T12:08:08.587Z,927.65
2018-04-10T12:09:16.622Z,927.61
2018-04-10T12:10:24.696Z,927.59
2018-04-10T12:11:32.764Z,927.62
2018-04-10T12:12:40.881Z,927.60
2018-04-10T12:13:48.911Z,927.58
2018-04-10T12:14:56.982Z,927.57
2018-04-10T12:16:05.089Z,927.55
2018-04-10T12:17:13.242Z,927.58
2018-04-10T12:18:21.176Z,927.62
2018-04-10T12:19:29.275Z,927.61
2018-04-10T12:20:37.343Z,927.55
2018-04-10T12:21:45.414Z,927.58
2018-04-10T12:22:53.512Z,927.60
2018-04-10T12:24:01.523Z,927.59
2018-04-10T12:25:09.622Z,927.59
2018-04-10T12:26:17.695Z,927.54
2018-04-10T12:27:25.761Z,927.53
2018-04-10T12:28:33.937Z,927.52
2018-04-10T12:29:41.897Z,927.53
2018-04-10T12:30:49.973Z,927.52
2018-04-10T12:31:58.053Z,927.49
2018-04-10T12:33:06.166Z,927.45
2018-04-10T12:34:14.229Z,927.44
2018-04-10T12:35:22.245Z,927.46
2018-04-10T12:36:30.342Z,927.44
2018-04-10T12:37:38.395Z,927.50
2018-04-10T12:38:46.481Z,927.38
2018-04-10T12:39:54.612Z,927.36
2018-04-10T12:41:02.627Z,927.35
2018-04-10T12:42:10.693Z,927.32
2018-04-10T12:43:18.755Z,927.32
2018-04-10T12:44:26.823Z,927.44
2018-04-10T12:45:35.024Z,927.45
2018-04-10T12:46:42.972Z,927.41
2018-04-10T12:47:51.067Z,927.41
2018-04-10T12:48:59.109Z,927.39
2018-04-10T12:50:07.179Z,927.33
2018-04-10T12:51:15.363Z,927.43
2018-04-10T12:52:23.345Z,927.34
2018-04-10T12:53:31.390Z,927.31
2018-04-10T12:54:39.462Z,927.32
2018-04-10T12:55:47.532Z,927.25
2018-04-10T12:56:55.676Z,927.30
2018-04-10T12:58:03.695Z,927.31
2018-04-10T12:59:11.733Z,927.32
2018-04-10T13:00:19.848Z,927.30
2018-04-10T13:01:27.904Z,927.31
2018-04-10T13:02:36.026Z,927.30
2018-04-10T13:03:44.060Z,927.29
2018-04-10T13:04:52.110Z,927.28
2018-04-10T13:06:00.193Z,927.28
2018-04-10T13:07:08.375Z,927.29
2018-04-10T13:08:16.337Z,927.29
2018-04-10T13:09:24.404Z,927.27
2018-04-10T13:10:32.482Z,927.28
2018-04-10T13:11:40.545Z,927.25
2018-04-10T13:12:48.742Z,927.24
2018-04-10T13:13:57.537Z,927.21
2018-04-10T13:15:04.766Z,927.20
2018-04-10T13:16:12.835Z,927.21
2018-04-10T13:17:20.944Z,927.19
2018-04-10T13:18:29.083Z,927.19
2018-04-10T13:19:37.035Z,927.20
2018-04-10T13:20:45.120Z,927.24
2018-04-10T13:21:53.186Z,927.20
2018-04-10T13:23:01.246Z,927.19
2018-04-10T13:24:09.442Z,927.16
2018-04-10T13:25:17.409Z,927.25
2018-04-10T13:26:25.478Z,927.24
2018-04-10T13:27:33.533Z,927.23
2018-04-10T13:28:41.582Z,927.20
2018-04-10T13:29:49.798Z,927.25
2018-04-10T13:30:57.768Z,927.23
2018-04-10T13:32:05.825Z,927.23
2018-04-10T13:33:13.958Z,927.23
2018-04-10T13:34:21.977Z,927.22
2018-04-10T13:35:30.172Z,927.22
2018-04-10T13:36:38.129Z,927.21
2018-04-10T13:37:46.194Z,927.19
2018-04-10T13:38:54.270Z,927.17
2018-04-10T13:40:02.332Z,927.15
2018-04-10T13:41:10.436Z,927.18
2018-04-10T13:42:18.477Z,927.18
2018-04-10T13:43:26.556Z,927.17
2018-04-10T13:44:34.622Z,927.16
2018-04-10T13:45:42.669Z,927.22
2018-04-10T13:46:50.844Z,927.19
2018-04-10T13:47:58.876Z,927.22
2018-04-10T13:49:06.920Z,927.27
2018-04-10T13:50:14.964Z,927.24
2018-04-10T13:51:23.034Z,927.34
2018-04-10T13:52:31.127Z,927.36
2018-04-10T13:53:39.185Z,927.41
2018-04-10T13:54:47.254Z,927.48
2018-04-10T13:55:55.329Z,927.44
2018-04-10T13:57:03.440Z,927.51
2018-04-10T13:58:11.426Z,927.51
2018-04-10T13:59:19.531Z,927.58
2018-04-10T14:00:27.597Z,927.57
2018-04-10T14:01:35.665Z,927.55
2018-04-10T14:02:43.787Z,927.65
2018-04-10T14:03:51.916Z,927.64
2018-04-10T14:04:59.886Z,927.65
2018-04-10T14:06:07.954Z,927.74
2018-04-10T14:07:16.068Z,927.74
2018-04-10T14:08:24.093Z,927.76
2018-04-10T14:09:32.146Z,927.81